createdAt,value
2018-10-01T00:04:58.348Z,12.17
2018-10-01T00:10:02.648Z,11.87
2018-10-01T00:15:06.878Z,13.47
2018-10-01T00:20:16.068Z,12.43
2018-10-01T00:25:20.339Z,11.80
2018-10-01T00:30:24.676Z,13.07
2018-10-01T00:35:28.997Z,11.50
2018-10-01T00:40:33.280Z,11.50
2018-10-01T00:45:37.805Z,12.23
2018-10-01T00:50:42.053Z,11.67
2018-10-01T00:55:46.221Z,11.30
2018-10-01T01:00:50.609Z,9.83
2018-10-01T01:05:54.843Z,10.87
2018-10-01T01:10:59.327Z,11.37
2018-10-01T01:16:03.695Z,11.47
2018-10-01T01:21:07.975Z,9.33
2018-10-01T01:26:12.456Z,14.37
2018-10-01T01:31:16.875Z,9.50
2018-10-01T01:36:21.221Z,9.93
2018-10-01T01:41:25.469Z,7.70
2018-10-01T01:46:29.674Z,8.07
2018-10-01T01:51:33.934Z,8.77
2018-10-01T01:56:39.225Z,10.23
2018-10-01T02:01:43.501Z,7.90
2018-10-01T02:06:47.938Z,7.83
2018-10-01T02:11:52.281Z,7.40
2018-10-01T02:16:56.735Z,9.30
2018-10-01T02:22:01.048Z,6.13
2018-10-01T02:27:05.291Z,8.43
2018-10-01T02:32:09.579Z,4.90
2018-10-01T02:37:14.274Z,5.87
2018-10-01T02:42:18.591Z,14.33
2018-10-01T02:47:22.832Z,7.63
2018-10-01T02:52:32.915Z,8.63
2018-10-01T02:57:37.173Z,7.97
2018-10-01T03:02:41.522Z,6.60
2018-10-01T03:07:45.759Z,6.67
2018-10-01T03:12:50.051Z,5.30
2018-10-01T03:17:54.330Z,12.43
2018-10-01T03:22:58.616Z,6.90
2018-10-01T03:28:02.947Z,7.97
2018-10-01T03:33:07.615Z,6.73
2018-10-01T03:38:11.899Z,7.17
2018-10-01T03:43:16.209Z,5.73
2018-10-01T03:48:20.801Z,12.23
2018-10-01T03:53:25.248Z,8.63
2018-10-01T03:58:29.577Z,7.93
2018-10-01T04:03:33.982Z,5.30
2018-10-01T04:08:39.432Z,6.10
2018-10-01T04:13:43.680Z,10.43
2018-10-01T04:18:48.017Z,7.47
2018-10-01T04:23:52.367Z,5.97
2018-10-01T04:28:56.653Z,7.70
2018-10-01T04:34:00.974Z,7.43
2018-10-01T04:39:08.865Z,7.80
2018-10-01T04:44:13.223Z,8.50
2018-10-01T04:49:17.782Z,7.73
2018-10-01T04:54:22.069Z,7.83
2018-10-01T04:59:26.405Z,7.60
2018-10-01T05:04:32.796Z,9.43
2018-10-01T05:09:37.559Z,6.67
2018-10-01T05:14:41.862Z,6.80
2018-10-01T05:19:46.285Z,7.20
2018-10-01T05:24:50.585Z,10.47
2018-10-01T05:29:54.857Z,7.27
2018-10-01T05:34:59.316Z,13.03
2018-10-01T05:40:03.770Z,10.50
2018-10-01T05:45:08.369Z,11.90
2018-10-01T05:50:12.732Z,11.33
2018-10-01T05:55:18.725Z,10.50
2018-10-01T06:00:23.497Z,14.73
2018-10-01T06:05:27.870Z,13.77
2018-10-01T06:10:32.374Z,9.10
2018-10-01T06:15:36.710Z,7.20
2018-10-01T06:20:41.674Z,12.73
2018-10-01T06:25:45.926Z,8.70
2018-10-01T06:30:50.334Z,10.60
2018-10-01T06:35:55.244Z,15.03
2018-10-01T06:41:00.053Z,9.13
2018-10-01T06:46:04.377Z,14.20
2018-10-01T06:51:08.995Z,16.40
2018-10-01T06:56:13.709Z,17.73
2018-10-01T07:01:18.234Z,14.53
2018-10-01T07:06:22.493Z,9.80
2018-10-01T07:11:26.980Z,10.77
2018-10-01T07:16:31.594Z,13.33
2018-10-01T07:21:36.158Z,10.97
2018-10-01T07:26:41.400Z,16.27
2018-10-01T07:31:46.246Z,12.03
2018-10-01T07:36:50.893Z,12.97
2018-10-01T07:41:55.319Z,15.57
2018-10-01T07:47:00.073Z,11.23
2018-10-01T07:52:05.662Z,11.83
2018-10-01T07:57:10.632Z,13.53
2018-10-01T08:02:15.756Z,14.53
2018-10-01T08:07:21.403Z,15.60
2018-10-01T08:12:25.746Z,13.07
2018-10-01T08:17:30.411Z,12.53
2018-10-01T08:22:34.735Z,14.30
2018-10-01T08:27:39.075Z,17.63
2018-10-01T08:32:44.739Z,15.43
2018-10-01T08:37:49.197Z,12.33
2018-10-01T08:42:53.620Z,17.33
2018-10-01T08:47:59.805Z,16.60
2018-10-01T08:53:44.072Z,15.97
2018-10-01T08:58:49.767Z,12.97
2018-10-01T09:03:54.390Z,15.63
2018-10-01T09:09:01.566Z,12.70
2018-10-01T09:14:08.191Z,12.00
2018-10-01T09:19:12.981Z,16.83
2018-10-01T09:24:17.344Z,14.13
2018-10-01T09:29:24.530Z,13.37
2018-10-01T09:39:46.671Z,11.40
2018-10-01T09:44:52.314Z,10.73
2018-10-01T09:49:57.758Z,14.37
2018-10-01T09:55:04.175Z,12.03
2018-10-01T10:00:10.462Z,16.10
2018-10-01T10:05:14.937Z,17.10
2018-10-01T10:10:24.743Z,18.17
2018-10-01T10:15:29.771Z,9.87
2018-10-01T10:20:39.369Z,13.00
2018-10-01T10:25:45.023Z,11.10
2018-10-01T10:30:50.655Z,19.10
2018-10-01T10:35:55.548Z,19.30
2018-10-01T10:41:08.131Z,15.57
2018-10-01T10:46:12.907Z,12.27
2018-10-01T10:51:24.737Z,9.80
2018-10-01T10:56:29.798Z,8.50
2018-10-01T11:01:34.529Z,9.87
2018-10-01T11:06:41.662Z,7.20
2018-10-01T11:11:49.397Z,6.40
2018-10-01T11:16:53.940Z,6.87
2018-10-01T11:21:59.737Z,5.83
2018-10-01T11:27:05.510Z,6.77
2018-10-01T11:32:20.039Z,6.93
2018-10-01T11:37:25.353Z,5.93
2018-10-01T11:42:33.019Z,5.70
2018-10-01T11:47:38.901Z,7.33
2018-10-01T11:52:43.960Z,8.40
2018-10-01T11:57:48.851Z,6.13
2018-10-01T12:02:53.301Z,7.07
2018-10-01T12:07:58.411Z,8.33
2018-10-01T12:13:02.970Z,11.13
2018-10-01T12:18:07.483Z,9.50
2018-10-01T12:23:21.322Z,9.73
2018-10-01T12:28:25.708Z,15.20
2018-10-01T12:33:30.176Z,11.83
2018-10-01T12:38:34.887Z,13.33
2018-10-01T12:48:54.055Z,11.80
2018-10-01T12:54:00.459Z,11.63
2018-10-01T12:59:05.812Z,10.17
2018-10-01T13:04:10.128Z,12.17
2018-10-01T13:09:17.618Z,11.80
2018-10-01T13:14:21.953Z,9.30
2018-10-01T13:19:26.492Z,10.77
2018-10-01T13:24:31.042Z,9.23
2018-10-01T13:29:37.140Z,12.50
2018-10-01T13:34:44.723Z,10.00
2018-10-01T13:39:49.310Z,7.93
2018-10-01T13:44:55.716Z,5.93
2018-10-01T13:50:05.300Z,7.17
2018-10-01T13:55:11.278Z,4.97
2018-10-01T14:00:15.863Z,5.30
2018-10-01T14:10:36.196Z,6.00
2018-10-01T14:15:40.943Z,5.83
2018-10-01T14:20:45.557Z,3.63
2018-10-01T14:25:49.932Z,6.60
2018-10-01T14:30:54.422Z,7.47
2018-10-01T14:35:58.802Z,5.87
2018-10-01T14:41:03.120Z,6.60
2018-10-01T14:46:07.597Z,7.17
2018-10-01T14:51:12.094Z,6.87
2018-10-01T14:56:16.410Z,5.80
2018-10-01T15:01:20.836Z,7.17
2018-10-01T15:06:25.297Z,9.87
2018-10-01T15:11:29.820Z,7.47
2018-10-01T15:16:34.531Z,4.63
2018-10-01T15:21:39.053Z,7.53
2018-10-01T15:26:43.461Z,4.53
2018-10-01T15:31:48.414Z,3.73
2018-10-01T15:36:53.131Z,4.70
2018-10-01T15:41:57.651Z,6.33
2018-10-01T15:47:02.234Z,3.73
2018-10-01T15:52:06.573Z,8.50
2018-10-01T15:57:12.014Z,3.20
2018-10-01T16:02:16.442Z,6.23
2018-10-01T16:07:21.994Z,4.13
2018-10-01T16:12:26.474Z,4.20
2018-10-01T16:17:32.106Z,4.67
2018-10-01T16:22:36.861Z,4.50
2018-10-01T16:27:41.588Z,3.03
2018-10-01T16:32:46.014Z,3.37
2018-10-01T16:37:50.730Z,3.50
2018-10-01T16:42:55.560Z,3.20
2018-10-01T16:48:02.447Z,2.53
2018-10-01T16:53:11.836Z,4.27
2018-10-01T16:58:16.154Z,2.10
2018-10-01T17:03:21.671Z,1.90
2018-10-01T17:08:30.300Z,2.40
2018-10-01T17:13:39.620Z,2.67
2018-10-01T17:18:44.349Z,2.70
2018-10-01T17:23:49.267Z,2.03
2018-10-01T17:29:08.475Z,2.57
2018-10-01T17:34:17.884Z,5.40
2018-10-01T17:39:22.357Z,3.00
2018-10-01T17:44:26.878Z,2.30
2018-10-01T17:49:31.704Z,3.40
2018-10-01T17:54:36.186Z,2.03
2018-10-01T17:59:40.681Z,2.30
2018-10-01T18:04:45.154Z,2.50
2018-10-01T18:09:49.909Z,2.50
2018-10-01T18:14:54.340Z,2.70
2018-10-01T18:20:00.263Z,2.40
2018-10-01T18:25:06.179Z,2.67
2018-10-01T18:30:16.099Z,2.43
2018-10-01T18:35:20.989Z,2.67
2018-10-01T18:40:25.797Z,3.30
2018-10-01T18:45:30.252Z,6.73
2018-10-01T18:50:35.144Z,3.37
2018-10-01T18:55:39.953Z,3.70
2018-10-01T19:00:44.339Z,2.50
2018-10-01T19:05:48.658Z,3.10
2018-10-01T19:10:53.059Z,2.17
2018-10-01T19:15:58.057Z,5.20
2018-10-01T19:21:07.361Z,4.10
2018-10-01T19:26:11.867Z,3.00
2018-10-01T19:31:17.491Z,2.67
2018-10-01T19:36:22.517Z,2.37
2018-10-01T19:41:27.157Z,3.33
2018-10-01T19:46:31.916Z,5.03
2018-10-01T19:51:36.975Z,3.00
2018-10-01T19:56:41.500Z,2.40
2018-10-01T20:01:46.498Z,2.30
2018-10-01T20:06:50.866Z,2.97
2018-10-01T20:11:56.277Z,2.63
2018-10-01T20:17:00.953Z,3.37
2018-10-01T20:22:05.828Z,4.17
2018-10-01T20:27:10.613Z,4.27
2018-10-01T20:32:15.174Z,5.73
2018-10-01T20:37:19.585Z,3.37
2018-10-01T20:42:24.429Z,3.93
2018-10-01T20:47:28.855Z,2.30
2018-10-01T20:52:33.446Z,4.47
2018-10-01T20:57:37.623Z,3.67
2018-10-01T21:02:42.113Z,3.33
2018-10-01T21:07:46.395Z,3.23
2018-10-01T21:12:50.741Z,3.83
2018-10-01T21:17:55.053Z,4.37
2018-10-01T21:22:59.507Z,2.30
2018-10-01T21:28:03.915Z,5.13
2018-10-01T21:33:09.930Z,6.57
2018-10-01T21:38:14.219Z,4.43
2018-10-01T21:43:19.431Z,2.63
2018-10-01T21:48:23.728Z,2.10
2018-10-01T21:53:28.186Z,3.00
2018-10-01T21:58:32.486Z,2.43
2018-10-01T22:03:36.901Z,3.73
2018-10-01T22:08:41.699Z,2.30
2018-10-01T22:13:46.037Z,5.13
2018-10-01T22:18:50.205Z,4.27
2018-10-01T22:23:54.671Z,4.23
2018-10-01T22:28:59.136Z,3.77
2018-10-01T22:34:03.735Z,4.93
2018-10-01T22:39:08.774Z,5.43
2018-10-01T22:44:13.083Z,5.03
2018-10-01T22:49:17.571Z,3.23
2018-10-01T22:54:21.808Z,3.97
2018-10-01T22:59:26.140Z,4.30
2018-10-01T23:04:30.553Z,6.27
2018-10-01T23:09:34.769Z,7.27
2018-10-01T23:14:39.121Z,4.10
2018-10-01T23:19:43.364Z,4.63
2018-10-01T23:24:47.590Z,5.03
2018-10-01T23:29:52.482Z,5.70
2018-10-01T23:34:56.696Z,3.83
2018-10-01T23:40:00.930Z,3.53
2018-10-01T23:45:05.241Z,5.70
2018-10-01T23:50:09.432Z,4.27
2018-10-01T23:55:15.886Z,7.63
